sensor_id;sensor_type;location;lat;lon;timestamp;P1;durP1;ratioP1;P2;durP2;ratioP2
31500;SDS011;31032;49.512;10.892;2022-07-04T00:00:00;1.05;;;0.80;;
31500;SDS011;31032;49.512;10.892;2022-07-04T00:02:25;1.25;;;0.88;;
31500;SDS011;31032;49.512;10.892;2022-07-04T00:04:51;2.08;;;1.02;;
31500;SDS011;31032;49.512;10.892;2022-07-04T00:07:16;1.55;;;1.10;;
31500;SDS011;31032;49.512;10.892;2022-07-04T00:09:42;2.05;;;1.00;;
31500;SDS011;31032;49.512;10.892;2022-07-04T00:12:07;1.20;;;0.70;;
31500;SDS011;31032;49.512;10.892;2022-07-04T00:14:33;1.88;;;0.80;;
31500;SDS011;31032;49.512;10.892;2022-07-04T00:16:58;1.67;;;0.70;;
31500;SDS011;31032;49.512;10.892;2022-07-04T00:19:23;3.17;;;1.02;;
31500;SDS011;31032;49.512;10.892;2022-07-04T00:21:49;1.73;;;0.85;;
31500;SDS011;31032;49.512;10.892;2022-07-04T00:24:14;1.80;;;0.85;;
31500;SDS011;31032;49.512;10.892;2022-07-04T00:26:40;1.88;;;1.02;;
31500;SDS011;31032;49.512;10.892;2022-07-04T00:29:05;2.88;;;1.17;;
31500;SDS011;31032;49.512;10.892;2022-07-04T00:31:30;2.35;;;0.93;;
31500;SDS011;31032;49.512;10.892;2022-07-04T00:33:56;3.53;;;1.00;;
31500;SDS011;31032;49.512;10.892;2022-07-04T00:36:21;1.67;;;0.80;;
31500;SDS011;31032;49.512;10.892;2022-07-04T00:38:46;1.85;;;1.00;;
31500;SDS011;31032;49.512;10.892;2022-07-04T00:41:12;1.60;;;0.90;;
31500;SDS011;31032;49.512;10.892;2022-07-04T00:43:38;2.33;;;0.80;;
31500;SDS011;31032;49.512;10.892;2022-07-04T00:46:03;1.40;;;0.80;;
31500;SDS011;31032;49.512;10.892;2022-07-04T00:48:30;1.48;;;0.70;;
31500;SDS011;31032;49.512;10.892;2022-07-04T00:50:55;1.33;;;0.90;;
31500;SDS011;31032;49.512;10.892;2022-07-04T00:53:21;2.85;;;0.80;;
31500;SDS011;31032;49.512;10.892;2022-07-04T00:55:50;1.83;;;1.02;;
31500;SDS011;31032;49.512;10.892;2022-07-04T00:58:19;1.20;;;0.80;;
31500;SDS011;31032;49.512;10.892;2022-07-04T01:00:45;3.90;;;0.85;;
31500;SDS011;31032;49.512;10.892;2022-07-04T01:03:11;1.80;;;0.77;;
31500;SDS011;31032;49.512;10.892;2022-07-04T01:05:37;1.98;;;0.80;;
31500;SDS011;31032;49.512;10.892;2022-07-04T01:08:03;2.00;;;0.82;;
31500;SDS011;31032;49.512;10.892;2022-07-04T01:10:29;3.45;;;0.98;;
31500;SDS011;31032;49.512;10.892;2022-07-04T01:12:55;2.33;;;0.90;;
31500;SDS011;31032;49.512;10.892;2022-07-04T01:15:20;1.20;;;0.80;;
31500;SDS011;31032;49.512;10.892;2022-07-04T01:17:46;1.35;;;0.68;;
31500;SDS011;31032;49.512;10.892;2022-07-04T01:20:12;2.15;;;0.90;;
31500;SDS011;31032;49.512;10.892;2022-07-04T01:22:38;2.85;;;1.08;;
31500;SDS011;31032;49.512;10.892;2022-07-04T01:25:03;1.38;;;0.70;;
31500;SDS011;31032;49.512;10.892;2022-07-04T01:27:29;2.55;;;0.68;;
31500;SDS011;31032;49.512;10.892;2022-07-04T01:29:55;2.83;;;0.90;;
31500;SDS011;31032;49.512;10.892;2022-07-04T01:32:20;1.20;;;0.70;;
31500;SDS011;31032;49.512;10.892;2022-07-04T01:34:45;1.73;;;0.82;;
31500;SDS011;31032;49.512;10.892;2022-07-04T01:37:11;2.67;;;0.90;;
31500;SDS011;31032;49.512;10.892;2022-07-04T01:39:36;1.60;;;0.82;;
31500;SDS011;31032;49.512;10.892;2022-07-04T01:42:02;0.63;;;0.57;;
31500;SDS011;31032;49.512;10.892;2022-07-04T01:44:27;1.50;;;0.82;;
31500;SDS011;31032;49.512;10.892;2022-07-04T01:46:53;1.70;;;0.75;;
31500;SDS011;31032;49.512;10.892;2022-07-04T01:49:18;1.10;;;0.68;;
31500;SDS011;31032;49.512;10.892;2022-07-04T01:51:44;1.80;;;1.23;;
31500;SDS011;31032;49.512;10.892;2022-07-04T01:54:11;2.50;;;0.97;;
31500;SDS011;31032;49.512;10.892;2022-07-04T01:56:37;2.75;;;1.05;;
31500;SDS011;31032;49.512;10.892;2022-07-04T01:59:03;1.00;;;0.70;;
31500;SDS011;31032;49.512;10.892;2022-07-04T02:01:29;1.58;;;0.70;;
31500;SDS011;31032;49.512;10.892;2022-07-04T02:03:55;0.90;;;0.73;;
31500;SDS011;31032;49.512;10.892;2022-07-04T02:06:21;2.17;;;0.70;;
31500;SDS011;31032;49.512;10.892;2022-07-04T02:08:46;1.00;;;0.80;;
31500;SDS011;31032;49.512;10.892;2022-07-04T02:11:30;3.08;;;0.65;;
31500;SDS011;31032;49.512;10.892;2022-07-04T02:14:15;2.72;;;0.77;;
31500;SDS011;31032;49.512;10.892;2022-07-04T02:16:40;1.30;;;0.85;;
31500;SDS011;31032;49.512;10.892;2022-07-04T02:19:06;1.13;;;0.90;;
31500;SDS011;31032;49.512;10.892;2022-07-04T02:21:31;1.90;;;0.90;;
31500;SDS011;31032;49.512;10.892;2022-07-04T02:23:56;1.25;;;0.80;;
31500;SDS011;31032;49.512;10.892;2022-07-04T02:26:22;2.38;;;0.90;;
31500;SDS011;31032;49.512;10.892;2022-07-04T02:28:47;1.33;;;0.90;;
31500;SDS011;31032;49.512;10.892;2022-07-04T02:31:12;1.58;;;1.00;;
31500;SDS011;31032;49.512;10.892;2022-07-04T02:33:38;2.03;;;0.82;;
31500;SDS011;31032;49.512;10.892;2022-07-04T02:36:03;2.03;;;0.90;;
31500;SDS011;31032;49.512;10.892;2022-07-04T02:38:29;1.48;;;0.77;;
31500;SDS011;31032;49.512;10.892;2022-07-04T02:40:54;2.47;;;0.70;;
31500;SDS011;31032;49.512;10.892;2022-07-04T02:43:19;2.33;;;0.80;;
31500;SDS011;31032;49.512;10.892;2022-07-04T02:45:45;2.10;;;0.85;;
31500;SDS011;31032;49.512;10.892;2022-07-04T02:48:10;1.10;;;0.90;;
31500;SDS011;31032;49.512;10.892;2022-07-04T02:50:35;1.27;;;0.77;;
31500;SDS011;31032;49.512;10.892;2022-07-04T02:53:01;1.13;;;0.80;;
31500;SDS011;31032;49.512;10.892;2022-07-04T02:55:26;1.48;;;0.90;;
31500;SDS011;31032;49.512;10.892;2022-07-04T02:57:51;1.80;;;0.60;;
31500;SDS011;31032;49.512;10.892;2022-07-04T03:00:17;1.25;;;0.70;;
31500;SDS011;31032;49.512;10.892;2022-07-04T03:02:42;1.00;;;0.73;;
31500;SDS011;31032;49.512;10.892;2022-07-04T03:05:08;1.23;;;0.80;;
31500;SDS011;31032;49.512;10.892;2022-07-04T03:07:33;2.28;;;0.85;;
31500;SDS011;31032;49.512;10.892;2022-07-04T03:09:58;2.45;;;0.70;;
31500;SDS011;31032;49.512;10.892;2022-07-04T03:12:24;1.05;;;0.80;;
31500;SDS011;31032;49.512;10.892;2022-07-04T03:14:49;1.08;;;0.57;;
31500;SDS011;31032;49.512;10.892;2022-07-04T03:17:14;2.72;;;0.93;;
31500;SDS011;31032;49.512;10.892;2022-07-04T03:19:40;4.15;;;0.73;;
31500;SDS011;31032;49.512;10.892;2022-07-04T03:22:05;0.85;;;0.75;;
31500;SDS011;31032;49.512;10.892;2022-07-04T03:24:30;2.38;;;0.68;;
31500;SDS011;31032;49.512;10.892;2022-07-04T03:26:56;2.28;;;0.80;;
31500;SDS011;31032;49.512;10.892;2022-07-04T03:29:21;2.50;;;0.85;;
31500;SDS011;31032;49.512;10.892;2022-07-04T03:31:46;1.85;;;0.88;;
31500;SDS011;31032;49.512;10.892;2022-07-04T03:34:12;2.80;;;0.90;;
31500;SDS011;31032;49.512;10.892;2022-07-04T03:36:37;1.25;;;0.77;;
31500;SDS011;31032;49.512;10.892;2022-07-04T03:39:02;1.42;;;0.80;;
31500;SDS011;31032;49.512;10.892;2022-07-04T03:41:28;2.45;;;1.00;;
31500;SDS011;31032;49.512;10.892;2022-07-04T03:43:53;1.98;;;0.95;;
31500;SDS011;31032;49.512;10.892;2022-07-04T03:46:18;1.33;;;0.90;;
31500;SDS011;31032;49.512;10.892;2022-07-04T03:48:44;1.75;;;0.82;;
31500;SDS011;31032;49.512;10.892;2022-07-04T03:51:11;1.48;;;0.88;;
31500;SDS011;31032;49.512;10.892;2022-07-04T03:53:37;1.08;;;0.77;;
31500;SDS011;31032;49.512;10.892;2022-07-04T03:56:02;1.77;;;0.90;;
31500;SDS011;31032;49.512;10.892;2022-07-04T03:58:28;1.02;;;0.70;;
31500;SDS011;31032;49.512;10.892;2022-07-04T04:00:53;1.30;;;0.85;;
31500;SDS011;31032;49.512;10.892;2022-07-04T04:03:19;1.35;;;0.80;;
31500;SDS011;31032;49.512;10.892;2022-07-04T04:06:03;1.42;;;0.85;;
31500;SDS011;31032;49.512;10.892;2022-07-04T04:08:28;1.42;;;0.70;;
31500;SDS011;31032;49.512;10.892;2022-07-04T04:10:53;2.90;;;0.90;;
31500;SDS011;31032;49.512;10.892;2022-07-04T04:13:18;1.58;;;0.85;;
31500;SDS011;31032;49.512;10.892;2022-07-04T04:15:44;1.80;;;0.90;;
31500;SDS011;31032;49.512;10.892;2022-07-04T04:18:09;2.20;;;0.80;;
31500;SDS011;31032;49.512;10.892;2022-07-04T04:20:35;2.38;;;0.82;;
31500;SDS011;31032;49.512;10.892;2022-07-04T04:23:00;1.45;;;0.70;;
31500;SDS011;31032;49.512;10.892;2022-07-04T04:25:26;2.65;;;0.98;;
31500;SDS011;31032;49.512;10.892;2022-07-04T04:27:51;1.65;;;1.10;;
31500;SDS011;31032;49.512;10.892;2022-07-04T04:30:16;2.08;;;0.77;;
31500;SDS011;31032;49.512;10.892;2022-07-04T04:32:42;1.00;;;0.80;;
31500;SDS011;31032;49.512;10.892;2022-07-04T04:35:07;1.98;;;1.00;;
31500;SDS011;31032;49.512;10.892;2022-07-04T04:37:33;2.42;;;1.33;;
31500;SDS011;31032;49.512;10.892;2022-07-04T04:39:58;1.70;;;1.10;;
31500;SDS011;31032;49.512;10.892;2022-07-04T04:42:24;1.25;;;0.90;;
31500;SDS011;31032;49.512;10.892;2022-07-04T04:44:49;3.13;;;1.10;;
31500;SDS011;31032;49.512;10.892;2022-07-04T04:47:15;2.47;;;1.10;;
31500;SDS011;31032;49.512;10.892;2022-07-04T04:49:40;1.17;;;0.88;;
31500;SDS011;31032;49.512;10.892;2022-07-04T04:52:06;1.67;;;1.05;;
31500;SDS011;31032;49.512;10.892;2022-07-04T04:54:32;1.58;;;1.00;;
31500;SDS011;31032;49.512;10.892;2022-07-04T04:56:58;1.70;;;0.80;;
31500;SDS011;31032;49.512;10.892;2022-07-04T04:59:24;3.53;;;1.20;;
31500;SDS011;31032;49.512;10.892;2022-07-04T05:01:49;1.98;;;1.10;;
31500;SDS011;31032;49.512;10.892;2022-07-04T05:04:15;1.60;;;1.02;;
31500;SDS011;31032;49.512;10.892;2022-07-04T05:06:40;1.33;;;1.00;;
31500;SDS011;31032;49.512;10.892;2022-07-04T05:09:05;2.35;;;0.90;;
31500;SDS011;31032;49.512;10.892;2022-07-04T05:11:31;1.67;;;1.10;;
31500;SDS011;31032;49.512;10.892;2022-07-04T05:13:56;2.65;;;1.08;;
31500;SDS011;31032;49.512;10.892;2022-07-04T05:16:22;3.63;;;1.15;;
31500;SDS011;31032;49.512;10.892;2022-07-04T05:18:47;3.38;;;1.20;;
31500;SDS011;31032;49.512;10.892;2022-07-04T05:21:12;1.85;;;0.98;;
31500;SDS011;31032;49.512;10.892;2022-07-04T05:23:38;1.55;;;1.00;;
31500;SDS011;31032;49.512;10.892;2022-07-04T05:26:03;1.10;;;0.90;;
31500;SDS011;31032;49.512;10.892;2022-07-04T05:28:28;2.25;;;1.27;;
31500;SDS011;31032;49.512;10.892;2022-07-04T05:30:54;2.58;;;0.90;;
31500;SDS011;31032;49.512;10.892;2022-07-04T05:33:19;4.60;;;0.95;;
31500;SDS011;31032;49.512;10.892;2022-07-04T05:35:44;1.90;;;1.10;;
31500;SDS011;31032;49.512;10.892;2022-07-04T05:38:10;1.77;;;1.00;;
31500;SDS011;31032;49.512;10.892;2022-07-04T05:40:35;2.13;;;1.17;;
31500;SDS011;31032;49.512;10.892;2022-07-04T05:43:01;2.63;;;1.08;;
31500;SDS011;31032;49.512;10.892;2022-07-04T05:45:26;2.15;;;1.10;;
31500;SDS011;31032;49.512;10.892;2022-07-04T05:47:52;3.55;;;0.93;;
31500;SDS011;31032;49.512;10.892;2022-07-04T05:50:17;1.65;;;0.98;;
31500;SDS011;31032;49.512;10.892;2022-07-04T05:52:42;4.07;;;1.00;;
31500;SDS011;31032;49.512;10.892;2022-07-04T05:55:08;3.85;;;1.10;;
31500;SDS011;31032;49.512;10.892;2022-07-04T05:57:34;1.02;;;0.82;;
31500;SDS011;31032;49.512;10.892;2022-07-04T06:00:00;1.75;;;1.10;;
31500;SDS011;31032;49.512;10.892;2022-07-04T06:02:25;1.77;;;0.93;;
31500;SDS011;31032;49.512;10.892;2022-07-04T06:04:51;1.65;;;1.00;;
31500;SDS011;31032;49.512;10.892;2022-07-04T06:07:16;1.77;;;0.95;;
31500;SDS011;31032;49.512;10.892;2022-07-04T06:09:42;1.85;;;0.82;;
31500;SDS011;31032;49.512;10.892;2022-07-04T06:12:08;2.05;;;1.05;;
31500;SDS011;31032;49.512;10.892;2022-07-04T06:14:34;2.55;;;1.00;;
31500;SDS011;31032;49.512;10.892;2022-07-04T06:16:59;2.55;;;1.08;;
31500;SDS011;31032;49.512;10.892;2022-07-04T06:19:25;3.90;;;1.17;;
31500;SDS011;31032;49.512;10.892;2022-07-04T06:21:50;2.90;;;1.00;;
31500;SDS011;31032;49.512;10.892;2022-07-04T06:24:15;2.50;;;0.80;;
31500;SDS011;31032;49.512;10.892;2022-07-04T06:26:41;1.60;;;0.88;;
31500;SDS011;31032;49.512;10.892;2022-07-04T06:29:06;3.78;;;0.95;;
31500;SDS011;31032;49.512;10.892;2022-07-04T06:31:32;1.95;;;0.90;;
31500;SDS011;31032;49.512;10.892;2022-07-04T06:33:57;3.63;;;0.85;;
31500;SDS011;31032;49.512;10.892;2022-07-04T06:36:41;4.68;;;1.00;;
31500;SDS011;31032;49.512;10.892;2022-07-04T06:39:07;1.75;;;1.20;;
31500;SDS011;31032;49.512;10.892;2022-07-04T06:41:32;4.95;;;1.10;;
31500;SDS011;31032;49.512;10.892;2022-07-04T06:43:57;3.08;;;0.88;;
31500;SDS011;31032;49.512;10.892;2022-07-04T06:46:23;1.50;;;1.00;;
31500;SDS011;31032;49.512;10.892;2022-07-04T06:48:48;2.55;;;1.15;;
31500;SDS011;31032;49.512;10.892;2022-07-04T06:51:14;2.17;;;1.20;;
31500;SDS011;31032;49.512;10.892;2022-07-04T06:53:42;1.25;;;0.93;;
31500;SDS011;31032;49.512;10.892;2022-07-04T06:58:33;2.50;;;0.98;;
31500;SDS011;31032;49.512;10.892;2022-07-04T07:00:59;1.67;;;1.00;;
31500;SDS011;31032;49.512;10.892;2022-07-04T07:03:24;2.22;;;0.90;;
31500;SDS011;31032;49.512;10.892;2022-07-04T07:05:50;2.53;;;1.08;;
31500;SDS011;31032;49.512;10.892;2022-07-04T07:08:15;1.80;;;1.00;;
31500;SDS011;31032;49.512;10.892;2022-07-04T07:10:40;3.30;;;1.10;;
31500;SDS011;31032;49.512;10.892;2022-07-04T07:13:06;2.30;;;1.10;;
31500;SDS011;31032;49.512;10.892;2022-07-04T07:15:35;1.25;;;0.90;;
31500;SDS011;31032;49.512;10.892;2022-07-04T07:18:03;5.40;;;1.17;;
31500;SDS011;31032;49.512;10.892;2022-07-04T07:20:29;2.42;;;1.08;;
31500;SDS011;31032;49.512;10.892;2022-07-04T07:22:55;1.73;;;0.90;;
31500;SDS011;31032;49.512;10.892;2022-07-04T07:25:20;1.48;;;1.05;;
31500;SDS011;31032;49.512;10.892;2022-07-04T07:27:45;1.80;;;1.13;;
31500;SDS011;31032;49.512;10.892;2022-07-04T07:30:11;2.85;;;0.95;;
31500;SDS011;31032;49.512;10.892;2022-07-04T07:32:36;1.83;;;1.05;;
31500;SDS011;31032;49.512;10.892;2022-07-04T07:35:02;1.75;;;1.17;;
31500;SDS011;31032;49.512;10.892;2022-07-04T07:37:28;2.78;;;1.38;;
31500;SDS011;31032;49.512;10.892;2022-07-04T07:39:54;2.90;;;1.20;;
31500;SDS011;31032;49.512;10.892;2022-07-04T07:42:19;1.83;;;1.10;;
31500;SDS011;31032;49.512;10.892;2022-07-04T07:44:45;1.92;;;1.05;;
31500;SDS011;31032;49.512;10.892;2022-07-04T07:47:14;1.75;;;1.02;;
31500;SDS011;31032;49.512;10.892;2022-07-04T07:49:43;1.85;;;1.30;;
31500;SDS011;31032;49.512;10.892;2022-07-04T07:52:09;2.22;;;1.00;;
31500;SDS011;31032;49.512;10.892;2022-07-04T07:54:34;1.73;;;1.00;;
31500;SDS011;31032;49.512;10.892;2022-07-04T07:56:59;3.35;;;1.10;;
31500;SDS011;31032;49.512;10.892;2022-07-04T07:59:25;1.80;;;0.90;;
31500;SDS011;31032;49.512;10.892;2022-07-04T08:01:50;1.50;;;1.00;;
31500;SDS011;31032;49.512;10.892;2022-07-04T08:04:16;2.15;;;1.02;;
31500;SDS011;31032;49.512;10.892;2022-07-04T08:07:03;1.77;;;1.00;;
31500;SDS011;31032;49.512;10.892;2022-07-04T08:09:30;3.15;;;1.00;;
31500;SDS011;31032;49.512;10.892;2022-07-04T08:11:55;1.70;;;0.95;;
31500;SDS011;31032;49.512;10.892;2022-07-04T08:14:21;1.95;;;1.15;;
31500;SDS011;31032;49.512;10.892;2022-07-04T08:16:46;2.03;;;1.10;;
31500;SDS011;31032;49.512;10.892;2022-07-04T08:19:12;1.33;;;1.00;;
31500;SDS011;31032;49.512;10.892;2022-07-04T08:21:37;2.42;;;0.90;;
31500;SDS011;31032;49.512;10.892;2022-07-04T08:24:02;1.85;;;1.15;;
31500;SDS011;31032;49.512;10.892;2022-07-04T08:26:28;1.55;;;1.15;;
31500;SDS011;31032;49.512;10.892;2022-07-04T08:28:53;2.47;;;1.30;;
31500;SDS011;31032;49.512;10.892;2022-07-04T08:31:22;3.42;;;1.30;;
31500;SDS011;31032;49.512;10.892;2022-07-04T08:33:51;3.13;;;1.38;;
31500;SDS011;31032;49.512;10.892;2022-07-04T08:36:18;1.95;;;1.10;;
31500;SDS011;31032;49.512;10.892;2022-07-04T08:38:43;1.55;;;1.00;;
31500;SDS011;31032;49.512;10.892;2022-07-04T08:41:09;2.83;;;1.35;;
31500;SDS011;31032;49.512;10.892;2022-07-04T08:43:34;2.28;;;0.93;;
31500;SDS011;31032;49.512;10.892;2022-07-04T08:46:05;4.15;;;1.08;;
31500;SDS011;31032;49.512;10.892;2022-07-04T08:48:31;3.80;;;1.30;;
31500;SDS011;31032;49.512;10.892;2022-07-04T08:51:09;2.60;;;1.35;;
31500;SDS011;31032;49.512;10.892;2022-07-04T08:53:39;3.13;;;1.20;;
31500;SDS011;31032;49.512;10.892;2022-07-04T08:56:13;1.85;;;1.23;;
31500;SDS011;31032;49.512;10.892;2022-07-04T08:58:57;1.67;;;1.23;;
31500;SDS011;31032;49.512;10.892;2022-07-04T09:01:23;3.22;;;1.30;;
31500;SDS011;31032;49.512;10.892;2022-07-04T09:03:50;2.10;;;1.35;;
31500;SDS011;31032;49.512;10.892;2022-07-04T09:06:15;1.67;;;1.20;;
31500;SDS011;31032;49.512;10.892;2022-07-04T09:08:40;1.98;;;0.95;;
31500;SDS011;31032;49.512;10.892;2022-07-04T09:11:06;5.40;;;1.20;;
31500;SDS011;31032;49.512;10.892;2022-07-04T09:13:32;1.77;;;1.00;;
31500;SDS011;31032;49.512;10.892;2022-07-04T09:15:57;1.90;;;1.15;;
31500;SDS011;31032;49.512;10.892;2022-07-04T09:20:53;2.38;;;1.30;;
31500;SDS011;31032;49.512;10.892;2022-07-04T09:23:24;1.50;;;1.10;;
31500;SDS011;31032;49.512;10.892;2022-07-04T09:26:11;1.55;;;1.10;;
31500;SDS011;31032;49.512;10.892;2022-07-04T09:31:17;3.83;;;1.27;;
31500;SDS011;31032;49.512;10.892;2022-07-04T09:34:04;3.50;;;1.35;;
31500;SDS011;31032;49.512;10.892;2022-07-04T09:36:31;2.38;;;1.10;;
31500;SDS011;31032;49.512;10.892;2022-07-04T09:39:12;2.03;;;1.00;;
31500;SDS011;31032;49.512;10.892;2022-07-04T09:44:43;2.30;;;1.30;;
31500;SDS011;31032;49.512;10.892;2022-07-04T09:47:19;2.65;;;1.10;;
31500;SDS011;31032;49.512;10.892;2022-07-04T09:49:57;2.47;;;1.30;;
31500;SDS011;31032;49.512;10.892;2022-07-04T09:52:26;3.63;;;1.30;;
31500;SDS011;31032;49.512;10.892;2022-07-04T09:54:56;4.80;;;1.20;;
31500;SDS011;31032;49.512;10.892;2022-07-04T09:57:23;4.13;;;1.10;;
31500;SDS011;31032;49.512;10.892;2022-07-04T09:59:48;3.35;;;1.20;;
31500;SDS011;31032;49.512;10.892;2022-07-04T10:02:13;2.90;;;0.90;;
31500;SDS011;31032;49.512;10.892;2022-07-04T10:04:50;2.13;;;1.00;;
31500;SDS011;31032;49.512;10.892;2022-07-04T10:10:21;1.45;;;0.90;;
31500;SDS011;31032;49.512;10.892;2022-07-04T10:12:49;2.47;;;0.90;;
31500;SDS011;31032;49.512;10.892;2022-07-04T10:15:15;2.22;;;0.90;;
31500;SDS011;31032;49.512;10.892;2022-07-04T10:17:41;2.10;;;1.00;;
31500;SDS011;31032;49.512;10.892;2022-07-04T10:20:07;3.38;;;1.20;;
31500;SDS011;31032;49.512;10.892;2022-07-04T10:22:34;2.58;;;1.00;;
31500;SDS011;31032;49.512;10.892;2022-07-04T10:25:01;2.45;;;1.10;;
31500;SDS011;31032;49.512;10.892;2022-07-04T10:27:26;2.58;;;1.05;;
31500;SDS011;31032;49.512;10.892;2022-07-04T10:29:52;1.50;;;0.80;;
31500;SDS011;31032;49.512;10.892;2022-07-04T10:32:18;2.08;;;1.00;;
31500;SDS011;31032;49.512;10.892;2022-07-04T10:34:44;2.03;;;1.10;;
31500;SDS011;31032;49.512;10.892;2022-07-04T10:37:09;1.90;;;1.00;;
31500;SDS011;31032;49.512;10.892;2022-07-04T10:39:35;1.35;;;0.68;;
31500;SDS011;31032;49.512;10.892;2022-07-04T10:42:00;1.33;;;0.73;;
31500;SDS011;31032;49.512;10.892;2022-07-04T10:44:27;1.63;;;0.90;;
31500;SDS011;31032;49.512;10.892;2022-07-04T10:47:00;1.50;;;0.93;;
31500;SDS011;31032;49.512;10.892;2022-07-04T10:49:26;1.75;;;0.93;;
31500;SDS011;31032;49.512;10.892;2022-07-04T10:51:53;1.27;;;0.60;;
31500;SDS011;31032;49.512;10.892;2022-07-04T10:54:39;2.53;;;0.90;;
31500;SDS011;31032;49.512;10.892;2022-07-04T10:59:39;1.77;;;0.60;;
31500;SDS011;31032;49.512;10.892;2022-07-04T11:04:44;1.98;;;0.80;;
31500;SDS011;31032;49.512;10.892;2022-07-04T11:17:49;1.95;;;0.60;;
31500;SDS011;31032;49.512;10.892;2022-07-04T11:20:16;2.00;;;1.02;;
31500;SDS011;31032;49.512;10.892;2022-07-04T11:22:45;1.23;;;0.60;;
31500;SDS011;31032;49.512;10.892;2022-07-04T11:25:11;1.65;;;0.77;;
31500;SDS011;31032;49.512;10.892;2022-07-04T11:27:40;1.52;;;0.50;;
31500;SDS011;31032;49.512;10.892;2022-07-04T11:30:06;1.40;;;0.60;;
31500;SDS011;31032;49.512;10.892;2022-07-04T11:32:33;1.85;;;0.60;;
31500;SDS011;31032;49.512;10.892;2022-07-04T11:34:59;1.25;;;0.63;;
31500;SDS011;31032;49.512;10.892;2022-07-04T11:37:25;2.65;;;0.55;;
31500;SDS011;31032;49.512;10.892;2022-07-04T11:39:51;1.00;;;0.70;;
31500;SDS011;31032;49.512;10.892;2022-07-04T11:42:39;3.60;;;0.50;;
31500;SDS011;31032;49.512;10.892;2022-07-04T11:45:24;1.42;;;0.70;;
31500;SDS011;31032;49.512;10.892;2022-07-04T11:47:49;0.55;;;0.40;;
31500;SDS011;31032;49.512;10.892;2022-07-04T11:50:16;1.33;;;0.65;;
31500;SDS011;31032;49.512;10.892;2022-07-04T11:52:44;2.53;;;0.60;;
31500;SDS011;31032;49.512;10.892;2022-07-04T11:55:11;1.60;;;0.60;;
31500;SDS011;31032;49.512;10.892;2022-07-04T11:57:42;2.58;;;1.00;;
31500;SDS011;31032;49.512;10.892;2022-07-04T12:00:10;3.67;;;0.70;;
31500;SDS011;31032;49.512;10.892;2022-07-04T12:02:38;2.20;;;0.63;;
31500;SDS011;31032;49.512;10.892;2022-07-04T12:05:04;3.17;;;0.80;;
31500;SDS011;31032;49.512;10.892;2022-07-04T12:10:06;1.42;;;0.50;;
31500;SDS011;31032;49.512;10.892;2022-07-04T12:15:20;1.08;;;0.43;;
31500;SDS011;31032;49.512;10.892;2022-07-04T12:17:55;1.42;;;0.50;;
31500;SDS011;31032;49.512;10.892;2022-07-04T12:20:21;2.22;;;0.68;;
31500;SDS011;31032;49.512;10.892;2022-07-04T12:25:28;3.15;;;0.65;;
31500;SDS011;31032;49.512;10.892;2022-07-04T12:28:01;1.33;;;0.40;;
31500;SDS011;31032;49.512;10.892;2022-07-04T12:30:29;0.88;;;0.50;;
31500;SDS011;31032;49.512;10.892;2022-07-04T12:32:58;2.17;;;1.20;;
31500;SDS011;31032;49.512;10.892;2022-07-04T12:38:28;1.60;;;0.68;;
31500;SDS011;31032;49.512;10.892;2022-07-04T12:41:09;1.05;;;0.60;;
31500;SDS011;31032;49.512;10.892;2022-07-04T12:46:14;3.05;;;0.63;;
31500;SDS011;31032;49.512;10.892;2022-07-04T12:48:48;2.35;;;0.50;;
31500;SDS011;31032;49.512;10.892;2022-07-04T12:51:18;2.50;;;0.50;;
31500;SDS011;31032;49.512;10.892;2022-07-04T12:53:45;4.60;;;0.50;;
31500;SDS011;31032;49.512;10.892;2022-07-04T12:56:33;0.75;;;0.50;;
31500;SDS011;31032;49.512;10.892;2022-07-04T12:59:05;2.97;;;0.45;;
31500;SDS011;31032;49.512;10.892;2022-07-04T13:01:31;0.82;;;0.30;;
31500;SDS011;31032;49.512;10.892;2022-07-04T13:03:57;2.22;;;0.43;;
31500;SDS011;31032;49.512;10.892;2022-07-04T13:06:23;0.65;;;0.40;;
31500;SDS011;31032;49.512;10.892;2022-07-04T13:08:49;1.25;;;0.52;;
31500;SDS011;31032;49.512;10.892;2022-07-04T13:11:15;1.27;;;0.38;;
31500;SDS011;31032;49.512;10.892;2022-07-04T13:13:59;3.05;;;0.52;;
31500;SDS011;31032;49.512;10.892;2022-07-04T13:16:24;0.85;;;0.50;;
31500;SDS011;31032;49.512;10.892;2022-07-04T13:18:49;0.88;;;0.45;;
31500;SDS011;31032;49.512;10.892;2022-07-04T13:21:15;1.65;;;0.50;;
31500;SDS011;31032;49.512;10.892;2022-07-04T13:23:41;0.57;;;0.25;;
31500;SDS011;31032;49.512;10.892;2022-07-04T13:26:06;1.00;;;0.30;;
31500;SDS011;31032;49.512;10.892;2022-07-04T13:28:31;1.75;;;0.50;;
31500;SDS011;31032;49.512;10.892;2022-07-04T13:30:57;1.20;;;0.52;;
31500;SDS011;31032;49.512;10.892;2022-07-04T13:33:22;1.73;;;0.50;;
31500;SDS011;31032;49.512;10.892;2022-07-04T13:35:48;0.88;;;0.30;;
31500;SDS011;31032;49.512;10.892;2022-07-04T13:38:13;0.95;;;0.47;;
31500;SDS011;31032;49.512;10.892;2022-07-04T13:40:41;0.98;;;0.40;;
31500;SDS011;31032;49.512;10.892;2022-07-04T13:43:08;0.98;;;0.32;;
31500;SDS011;31032;49.512;10.892;2022-07-04T13:45:37;0.98;;;0.30;;
31500;SDS011;31032;49.512;10.892;2022-07-04T13:48:05;2.33;;;0.57;;
31500;SDS011;31032;49.512;10.892;2022-07-04T13:50:31;0.70;;;0.47;;
31500;SDS011;31032;49.512;10.892;2022-07-04T13:52:57;1.42;;;0.40;;
31500;SDS011;31032;49.512;10.892;2022-07-04T13:55:23;0.60;;;0.38;;
31500;SDS011;31032;49.512;10.892;2022-07-04T13:57:48;2.05;;;0.43;;
31500;SDS011;31032;49.512;10.892;2022-07-04T14:00:13;0.45;;;0.32;;
31500;SDS011;31032;49.512;10.892;2022-07-04T14:02:41;3.50;;;0.43;;
31500;SDS011;31032;49.512;10.892;2022-07-04T14:05:06;2.33;;;0.50;;
31500;SDS011;31032;49.512;10.892;2022-07-04T14:07:32;1.77;;;0.30;;
31500;SDS011;31032;49.512;10.892;2022-07-04T14:09:58;1.02;;;0.40;;
31500;SDS011;31032;49.512;10.892;2022-07-04T14:12:24;1.10;;;0.38;;
31500;SDS011;31032;49.512;10.892;2022-07-04T14:14:50;0.60;;;0.30;;
31500;SDS011;31032;49.512;10.892;2022-07-04T14:17:15;0.77;;;0.30;;
31500;SDS011;31032;49.512;10.892;2022-07-04T14:19:40;0.70;;;0.32;;
31500;SDS011;31032;49.512;10.892;2022-07-04T14:22:06;0.55;;;0.30;;
31500;SDS011;31032;49.512;10.892;2022-07-04T14:24:31;1.15;;;0.30;;
31500;SDS011;31032;49.512;10.892;2022-07-04T14:26:56;0.90;;;0.30;;
31500;SDS011;31032;49.512;10.892;2022-07-04T14:29:22;2.00;;;0.40;;
31500;SDS011;31032;49.512;10.892;2022-07-04T14:31:47;1.38;;;0.40;;
31500;SDS011;31032;49.512;10.892;2022-07-04T14:34:12;1.27;;;0.30;;
31500;SDS011;31032;49.512;10.892;2022-07-04T14:36:38;1.60;;;0.40;;
31500;SDS011;31032;49.512;10.892;2022-07-04T14:39:04;1.27;;;0.40;;
31500;SDS011;31032;49.512;10.892;2022-07-04T14:41:30;1.55;;;0.45;;
31500;SDS011;31032;49.512;10.892;2022-07-04T14:43:55;2.47;;;0.30;;
31500;SDS011;31032;49.512;10.892;2022-07-04T14:46:21;1.60;;;0.38;;
31500;SDS011;31032;49.512;10.892;2022-07-04T14:48:46;1.10;;;0.38;;
31500;SDS011;31032;49.512;10.892;2022-07-04T14:51:11;1.40;;;0.40;;
31500;SDS011;31032;49.512;10.892;2022-07-04T14:53:37;0.30;;;0.25;;
31500;SDS011;31032;49.512;10.892;2022-07-04T14:56:02;0.95;;;0.32;;
31500;SDS011;31032;49.512;10.892;2022-07-04T14:58:28;1.25;;;0.30;;
31500;SDS011;31032;49.512;10.892;2022-07-04T15:00:55;2.72;;;0.30;;
31500;SDS011;31032;49.512;10.892;2022-07-04T15:03:20;1.10;;;0.20;;
31500;SDS011;31032;49.512;10.892;2022-07-04T15:05:46;0.95;;;0.35;;
31500;SDS011;31032;49.512;10.892;2022-07-04T15:08:11;0.40;;;0.20;;
31500;SDS011;31032;49.512;10.892;2022-07-04T15:10:36;0.50;;;0.30;;
31500;SDS011;31032;49.512;10.892;2022-07-04T15:13:02;0.75;;;0.30;;